Time;durP1;ratioP1;P1;durP2;ratioP2;P2;SDS_P1;SDS_P2;PMS_P1;PMS_P2;Temp;Humidity;BMP_temperature;BMP_pressure;BME280_temperature;BME280_humidity;BME280_pressure;Samples;Min_cycle;Max_cycle;Signal;HPM_P1;HPM_P2
2023/09/09 00:01:58;;;;;;;15.97;11.73;;;;;;;23.86;67.71;97636.44;5023527;28;20264;-23
2023/09/09 00:04:43;;;;;;;14.07;11.60;;;;;;;23.86;68.19;97628.75;5029075;28;20204;-24
2023/09/09 00:07:11;;;;;;;13.33;10.97;;;;;;;23.86;67.95;97623.63;5026651;28;20308;-24
2023/09/09 00:09:39;;;;;;;15.57;12.13;;;;;;;23.86;67.90;97626.19;5027412;28;20218;-24
2023/09/09 00:12:06;;;;;;;15.50;11.70;;;;;;;23.87;68.06;97629.63;5030431;28;20202;-24
2023/09/09 00:14:33;;;;;;;15.27;12.17;;;;;;;23.87;67.78;97634.75;5032097;28;20205;-24
2023/09/09 00:16:59;;;;;;;12.97;10.60;;;;;;;23.87;67.82;97627.94;5025627;28;20243;-24
2023/09/09 00:19:27;;;;;;;15.37;10.97;;;;;;;23.86;68.07;97633.88;5031678;28;20236;-23
2023/09/09 00:21:55;;;;;;;13.90;11.03;;;;;;;23.87;68.14;97627.06;5028740;28;20212;-24
2023/09/09 00:24:21;;;;;;;13.23;10.73;;;;;;;23.86;68.10;97628.75;5030690;28;20284;-23
2023/09/09 00:26:48;;;;;;;12.90;10.50;;;;;;;23.87;68.20;97629.63;5025758;28;20305;-24
2023/09/09 00:29:14;;;;;;;15.70;11.53;;;;;;;23.87;68.17;97629.63;5029479;28;20279;-24
2023/09/09 00:31:41;;;;;;;14.10;11.67;;;;;;;23.87;67.92;97633.06;5030443;28;20209;-23
2023/09/09 00:34:08;;;;;;;13.33;10.60;;;;;;;23.87;68.17;97635.63;5022820;28;20202;-23
2023/09/09 00:36:34;;;;;;;14.33;10.70;;;;;;;23.87;68.09;97634.75;5027919;28;20204;-24
2023/09/09 00:39:03;;;;;;;12.60;10.33;;;;;;;23.87;68.17;97627.06;5032537;28;20217;-24
2023/09/09 00:41:30;;;;;;;12.57;10.30;;;;;;;23.87;67.83;97627.06;5029161;28;20206;-23
2023/09/09 00:43:57;;;;;;;14.03;11.17;;;;;;;23.86;67.86;97623.63;5031961;28;20201;-24
2023/09/09 00:46:23;;;;;;;12.27;9.93;;;;;;;23.87;67.74;97620.25;5032072;28;20217;-24
2023/09/09 00:48:50;;;;;;;13.53;10.97;;;;;;;23.87;68.03;97625.38;5009362;23;20685;-26
2023/09/09 00:51:16;;;;;;;14.23;11.40;;;;;;;23.87;67.88;97620.25;5020085;28;20288;-26
2023/09/09 00:53:43;;;;;;;12.33;10.23;;;;;;;23.79;68.12;97602.91;5018086;28;20198;-26
2023/09/09 00:56:09;;;;;;;12.23;10.07;;;;;;;23.87;67.86;97617.66;5014787;28;20202;-26
2023/09/09 00:58:36;;;;;;;12.30;10.67;;;;;;;23.87;68.23;97622.81;5027316;28;20272;-26
2023/09/09 01:01:03;;;;;;;13.50;10.93;;;;;;;23.87;67.96;97627.94;5022509;28;20236;-26
2023/09/09 01:03:30;;;;;;;10.87;9.37;;;;;;;23.87;68.17;97619.38;5032138;28;20617;-26
2023/09/09 01:05:58;;;;;;;11.83;9.63;;;;;;;23.88;67.78;97621.09;5009983;28;20208;-26
2023/09/09 01:08:26;;;;;;;10.93;9.30;;;;;;;23.87;68.18;97625.38;5031974;28;20214;-26
2023/09/09 01:10:53;;;;;;;11.27;9.50;;;;;;;23.87;67.96;97624.50;5032082;28;20263;-26
2023/09/09 01:13:20;;;;;;;11.00;8.90;;;;;;;23.87;68.11;97630.50;5023109;28;20226;-26
2023/09/09 01:15:46;;;;;;;10.63;9.37;;;;;;;23.87;68.14;97620.25;5027331;28;20760;-27
2023/09/09 01:18:13;;;;;;;11.80;9.43;;;;;;;23.87;68.15;97619.38;5031382;28;20259;-26
2023/09/09 01:20:40;;;;;;;10.47;8.93;;;;;;;23.87;67.94;97616.78;5007557;28;20243;-26
2023/09/09 01:23:07;;;;;;;10.97;9.30;;;;;;;23.87;68.24;97619.38;4997635;28;20225;-26
2023/09/09 01:25:33;;;;;;;10.30;9.20;;;;;;;23.86;68.04;97613.34;5012725;28;20202;-26
2023/09/09 01:28:00;;;;;;;10.27;9.13;;;;;;;23.87;67.93;97619.38;5027000;28;20309;-26
2023/09/09 01:30:27;;;;;;;10.63;9.07;;;;;;;23.82;67.89;97611.56;5008933;28;20205;-26
2023/09/09 01:32:53;;;;;;;10.40;9.23;;;;;;;23.87;68.06;97619.38;5030136;28;20292;-26
2023/09/09 01:35:20;;;;;;;10.23;8.83;;;;;;;23.86;67.87;97615.06;5031342;28;20197;-26
2023/09/09 01:37:47;;;;;;;10.93;8.83;;;;;;;23.87;68.16;97615.09;5025422;28;20232;-26
2023/09/09 01:40:14;;;;;;;12.33;9.87;;;;;;;23.87;67.92;97617.66;5030459;28;20296;-26
2023/09/09 01:42:41;;;;;;;11.40;8.80;;;;;;;23.87;67.95;97614.22;5025962;28;20202;-26
2023/09/09 01:45:08;;;;;;;10.80;9.20;;;;;;;23.87;67.95;97616.78;5028390;28;20209;-26
2023/09/09 01:47:34;;;;;;;10.13;8.57;;;;;;;23.87;68.00;97617.66;5030154;28;20217;-26
2023/09/09 01:50:02;;;;;;;10.30;8.77;;;;;;;23.87;67.96;97619.38;5026476;28;20225;-26
2023/09/09 01:52:28;;;;;;;9.60;8.60;;;;;;;23.87;68.18;97619.38;5027467;28;20230;-26
2023/09/09 01:54:55;;;;;;;9.00;8.03;;;;;;;23.86;68.33;97615.91;5022409;28;20248;-26
2023/09/09 01:57:26;;;;;;;9.13;8.00;;;;;;;23.87;68.25;97614.22;5027620;28;20225;-26
2023/09/09 01:59:53;;;;;;;11.23;8.87;;;;;;;23.86;68.11;97618.47;5025307;28;20233;-28
2023/09/09 02:02:20;;;;;;;10.70;8.63;;;;;;;23.86;67.87;97620.22;5029699;28;20281;-26
2023/09/09 02:04:46;;;;;;;9.57;8.20;;;;;;;23.85;67.92;97616.75;5031585;28;20208;-26
2023/09/09 02:07:13;;;;;;;9.30;8.30;;;;;;;23.74;67.88;97595.13;5028891;28;20692;-26
2023/09/09 02:09:41;;;;;;;10.60;8.60;;;;;;;23.85;68.00;97615.88;5026196;28;20213;-26
2023/09/09 02:12:08;;;;;;;8.73;7.83;;;;;;;23.85;68.11;97615.88;5031023;28;20229;-26
2023/09/09 02:14:34;;;;;;;8.67;7.80;;;;;;;23.84;68.08;97612.47;5031163;28;20202;-26
2023/09/09 02:17:02;;;;;;;9.10;8.07;;;;;;;23.84;67.76;97612.47;5027398;28;20293;-26
2023/09/09 02:19:29;;;;;;;8.67;7.63;;;;;;;23.84;68.21;97612.47;5023077;28;20218;-26
2023/09/09 02:21:56;;;;;;;9.13;8.03;;;;;;;23.84;68.25;97622.75;5028778;28;20209;-26
2023/09/09 02:24:22;;;;;;;9.00;7.77;;;;;;;23.84;68.12;97612.47;5031401;28;20212;-26
2023/09/09 02:26:49;;;;;;;8.73;7.53;;;;;;;23.86;67.90;97622.78;5033560;28;20312;-26
2023/09/09 02:29:16;;;;;;;8.60;7.67;;;;;;;23.85;68.42;97618.44;5032206;28;20699;-26
2023/09/09 02:31:42;;;;;;;8.83;7.70;;;;;;;23.85;67.95;97618.44;5033215;28;20201;-26
2023/09/09 02:34:09;;;;;;;8.40;7.60;;;;;;;23.85;68.18;97619.34;5026720;28;20202;-26
2023/09/09 02:36:35;;;;;;;8.33;7.43;;;;;;;23.85;68.18;97618.44;5021500;28;20232;-26
2023/09/09 02:39:02;;;;;;;8.60;7.40;;;;;;;23.86;68.17;97618.47;5035030;28;20226;-26
2023/09/09 02:41:29;;;;;;;9.67;7.77;;;;;;;23.85;68.17;97618.44;5031267;28;20213;-26
2023/09/09 02:43:55;;;;;;;8.60;7.43;;;;;;;23.85;68.21;97618.44;5032219;28;20205;-26
2023/09/09 02:46:22;;;;;;;8.53;7.50;;;;;;;23.85;68.27;97619.34;5034426;28;20202;-26
2023/09/09 02:48:49;;;;;;;9.13;7.90;;;;;;;23.86;67.85;97622.78;5034639;28;20603;-26
2023/09/09 02:51:16;;;;;;;8.47;7.37;;;;;;;23.86;68.19;97625.34;5034250;28;20659;-26
2023/09/09 02:53:42;;;;;;;8.83;7.63;;;;;;;23.86;67.98;97623.63;5034549;28;20205;-26
2023/09/09 02:56:09;;;;;;;9.10;7.20;;;;;;;23.86;68.32;97622.78;5034435;28;20209;-26
2023/09/09 02:58:36;;;;;;;7.73;6.93;;;;;;;23.81;67.98;97609.84;5027570;28;20605;-26
2023/09/09 03:01:04;;;;;;;8.50;7.60;;;;;;;23.85;67.90;97621.91;5034367;28;20237;-26
2023/09/09 03:03:31;;;;;;;8.23;7.43;;;;;;;23.85;68.24;97619.34;5032808;28;20205;-26
2023/09/09 03:06:01;;;;;;;7.70;6.57;;;;;;;23.85;68.15;97621.91;5034143;28;20197;-26
2023/09/09 03:08:29;;;;;;;7.90;6.93;;;;;;;23.85;67.95;97619.34;5033918;28;20229;-26
2023/09/09 03:10:55;;;;;;;8.10;6.70;;;;;;;23.86;68.09;97622.78;5034391;28;20211;-26
2023/09/09 03:13:22;;;;;;;7.83;7.03;;;;;;;23.86;67.85;97620.22;5033858;28;20653;-26
2023/09/09 03:15:49;;;;;;;6.90;6.20;;;;;;;23.84;68.03;97609.91;5033975;28;20252;-26
2023/09/09 03:18:15;;;;;;;7.80;7.00;;;;;;;23.85;68.19;97619.34;5033691;28;20657;-26
2023/09/09 03:20:42;;;;;;;7.47;6.70;;;;;;;23.85;67.97;97615.88;5033959;28;20205;-26
2023/09/09 03:23:09;;;;;;;8.37;7.00;;;;;;;23.86;67.90;97620.22;5032552;28;20251;-26
2023/09/09 03:25:35;;;;;;;6.93;6.30;;;;;;;23.85;67.85;97616.75;5032376;28;20201;-26
2023/09/09 03:28:02;;;;;;;7.30;6.60;;;;;;;23.86;67.86;97617.63;5011947;28;20217;-26
2023/09/09 03:30:51;;;;;;;7.20;6.50;;;;;;;23.85;68.21;97619.34;5032857;28;20200;-26
2023/09/09 03:33:17;;;;;;;7.33;6.63;;;;;;;23.86;67.97;97620.22;5018091;28;20209;-26
2023/09/09 03:35:44;;;;;;;7.20;6.50;;;;;;;23.85;68.09;97616.75;5033519;28;20212;-26
2023/09/09 03:38:10;;;;;;;7.37;6.67;;;;;;;23.85;67.90;97621.91;5033462;28;20220;-26
2023/09/09 03:40:37;;;;;;;7.97;7.00;;;;;;;23.85;67.84;97610.75;5030737;28;20252;-26
2023/09/09 03:43:05;;;;;;;6.63;5.87;;;;;;;23.86;67.80;97620.22;5033463;28;20680;-26
2023/09/09 03:45:31;;;;;;;7.40;6.67;;;;;;;23.85;68.07;97619.34;5032074;28;20221;-26
2023/09/09 03:47:58;;;;;;;6.77;6.07;;;;;;;23.85;68.21;97623.59;5027488;28;20228;-26
2023/09/09 03:50:25;;;;;;;7.30;6.60;;;;;;;23.85;68.29;97619.34;5029289;28;20225;-26
2023/09/09 03:52:51;;;;;;;7.67;6.73;;;;;;;23.86;67.91;97620.22;5019788;28;20229;-26
2023/09/09 03:55:18;;;;;;;6.77;6.07;;;;;;;23.86;68.10;97620.22;5033425;28;20288;-26
2023/09/09 03:57:45;;;;;;;7.10;6.40;;;;;;;23.86;68.11;97621.06;5031600;28;20204;-26
2023/09/09 04:00:12;;;;;;;6.10;5.50;;;;;;;23.86;68.04;97625.34;5026643;28;20260;-26
2023/09/09 04:02:39;;;;;;;6.00;5.40;;;;;;;23.86;68.19;97625.34;5032281;28;20241;-26
2023/09/09 04:05:07;;;;;;;6.63;6.00;;;;;;;23.86;68.09;97620.22;5031882;28;20240;-26
2023/09/09 04:07:35;;;;;;;6.47;5.87;;;;;;;23.85;68.19;97621.91;5031915;28;20232;-26
2023/09/09 04:10:03;;;;;;;6.90;6.20;;;;;;;23.86;67.77;97620.22;5032601;28;20221;-26
2023/09/09 04:12:30;;;;;;;7.07;6.10;;;;;;;23.85;67.85;97624.47;5031398;28;20197;-26
2023/09/09 04:14:56;;;;;;;7.03;6.33;;;;;;;23.85;67.85;97621.91;5032707;28;20633;-26
2023/09/09 04:17:23;;;;;;;6.40;5.80;;;;;;;23.85;67.95;97624.47;5029620;28;20704;-26
2023/09/09 04:19:50;;;;;;;6.83;6.20;;;;;;;23.86;68.09;97622.78;5031255;28;20221;-26
2023/09/09 04:22:16;;;;;;;6.67;6.03;;;;;;;23.85;68.16;97627.03;5029957;28;20198;-26
2023/09/09 04:24:43;;;;;;;6.00;5.40;;;;;;;23.85;67.78;97629.59;5028613;28;20289;-26
2023/09/09 04:27:10;;;;;;;6.20;5.60;;;;;;;23.85;68.25;97627.03;5028249;28;20225;-26
2023/09/09 04:29:37;;;;;;;5.90;5.40;;;;;;;23.84;67.96;97630.44;5032238;28;20239;-26
2023/09/09 04:32:04;;;;;;;6.40;5.70;;;;;;;23.85;67.87;97628.72;5031183;28;20656;-26
2023/09/09 04:34:30;;;;;;;6.30;5.70;;;;;;;23.83;67.99;97628.69;5029729;28;20672;-26
2023/09/09 04:36:57;;;;;;;6.43;5.73;;;;;;;23.83;67.73;97622.72;5030777;28;20292;-26
2023/09/09 04:39:23;;;;;;;6.47;5.60;;;;;;;23.83;68.21;97628.69;5032158;28;20248;-26
2023/09/09 04:41:50;;;;;;;6.20;5.60;;;;;;;23.83;68.13;97627.84;5032197;28;20229;-26
2023/09/09 04:44:16;;;;;;;6.23;5.43;;;;;;;23.84;68.23;97627.00;5031807;28;20197;-26
2023/09/09 04:46:44;;;;;;;5.77;5.27;;;;;;;23.84;67.81;97629.56;5025147;28;20699;-26
2023/09/09 04:49:11;;;;;;;6.00;5.40;;;;;;;23.84;68.17;97627.00;5031974;28;20229;-26
2023/09/09 04:51:38;;;;;;;6.57;5.87;;;;;;;23.83;67.88;97630.41;5031744;28;20201;-26
2023/09/09 04:54:04;;;;;;;5.83;5.33;;;;;;;23.82;68.07;97632.09;5032006;28;20209;-26
2023/09/09 04:56:31;;;;;;;5.60;5.10;;;;;;;23.83;68.07;97632.97;5031849;28;20263;-26
2023/09/09 04:58:58;;;;;;;6.47;5.50;;;;;;;23.83;67.90;97631.25;5032362;28;20209;-26
2023/09/09 05:01:24;;;;;;;5.33;4.83;;;;;;;23.83;67.86;97632.97;5032048;28;20244;-27
2023/09/09 05:03:51;;;;;;;5.87;5.27;;;;;;;23.83;67.91;97631.25;5032203;28;20198;-26
2023/09/09 05:06:17;;;;;;;6.20;5.60;;;;;;;23.83;68.16;97627.84;5030952;28;20233;-26
2023/09/09 05:08:45;;;;;;;5.30;4.80;;;;;;;23.83;67.89;97635.53;5031294;28;20232;-27
2023/09/09 05:11:12;;;;;;;6.43;5.83;;;;;;;23.84;68.26;97639.84;5031545;28;20233;-26
2023/09/09 05:13:38;;;;;;;5.43;4.93;;;;;;;23.83;68.04;97641.50;5029474;28;20546;-26
2023/09/09 05:16:05;;;;;;;5.77;5.13;;;;;;;23.83;68.23;97645.81;5031978;28;20288;-26
2023/09/09 05:18:32;;;;;;;6.33;5.73;;;;;;;23.84;68.10;97647.53;5029527;28;20213;-26
2023/09/09 05:20:58;;;;;;;6.10;5.50;;;;;;;23.83;67.94;97644.09;5026056;28;20201;-26
2023/09/09 05:23:25;;;;;;;5.93;5.33;;;;;;;23.82;68.18;97650.06;5031405;28;20715;-26
2023/09/09 05:25:52;;;;;;;5.90;5.37;;;;;;;23.82;68.08;97647.50;5028541;28;20624;-26
2023/09/09 05:28:18;;;;;;;5.77;5.20;;;;;;;23.83;68.20;97648.38;5026791;28;20226;-26
2023/09/09 05:30:45;;;;;;;5.47;4.97;;;;;;;23.83;67.87;97658.63;5025946;28;20323;-26
2023/09/09 05:33:11;;;;;;;5.90;5.00;;;;;;;23.82;68.11;97655.19;5031356;28;20201;-26
2023/09/09 05:35:38;;;;;;;5.57;5.03;;;;;;;23.83;68.16;97656.06;5030280;28;20206;-26
2023/09/09 05:38:04;;;;;;;5.30;4.80;;;;;;;23.83;68.05;97654.34;5029526;28;20209;-26
2023/09/09 05:40:31;;;;;;;5.77;5.23;;;;;;;23.82;67.92;97657.75;5029397;28;20198;-26
2023/09/09 05:42:58;;;;;;;5.83;5.27;;;;;;;23.82;67.91;97657.75;5031525;28;20277;-26
2023/09/09 05:45:24;;;;;;;7.07;5.10;;;;;;;23.82;67.07;97655.19;5028770;28;20202;-26
2023/09/09 05:47:51;;;;;;;6.93;5.70;;;;;;;23.81;65.71;97661.16;5031113;28;20253;-26
2023/09/09 05:50:17;;;;;;;7.97;5.37;;;;;;;23.81;64.65;97658.59;5029802;28;20221;-26
2023/09/09 05:52:44;;;;;;;11.97;6.57;;;;;;;23.79;63.42;97657.69;5025187;28;20205;-26
2023/09/09 05:55:10;;;;;;;9.67;6.57;;;;;;;23.79;62.63;97665.41;5028261;28;20204;-26
2023/09/09 05:57:39;;;;;;;12.00;7.30;;;;;;;23.78;62.48;97661.09;5025208;28;20201;-26
2023/09/09 06:00:06;;;;;;;7.33;6.63;;;;;;;23.78;62.75;97665.34;5032061;28;20286;-26
2023/09/09 06:02:32;;;;;;;9.63;7.17;;;;;;;23.77;61.91;97673.91;5017346;28;20288;-26
2023/09/09 06:04:59;;;;;;;7.77;7.00;;;;;;;23.76;61.93;97670.47;5034824;28;20212;-26
2023/09/09 06:07:26;;;;;;;8.70;7.73;;;;;;;23.75;61.41;97679.00;5032454;28;20208;-26
2023/09/09 06:09:52;;;;;;;10.00;7.37;;;;;;;23.72;61.28;97671.22;5034074;28;20644;-26
2023/09/09 06:12:19;;;;;;;9.23;7.30;;;;;;;23.74;61.41;97674.69;5015503;28;20241;-26
2023/09/09 06:14:45;;;;;;;9.50;7.30;;;;;;;23.75;61.50;97676.44;5032770;28;20193;-26
2023/09/09 06:17:13;;;;;;;10.57;7.43;;;;;;;23.74;61.62;97679.81;5034108;28;20259;-26
2023/09/09 06:19:40;;;;;;;10.93;7.10;;;;;;;23.74;61.43;97677.25;5034463;28;20213;-26
2023/09/09 06:22:07;;;;;;;10.17;7.30;;;;;;;23.73;61.46;97684.91;5032037;28;20275;-26
2023/09/09 06:24:33;;;;;;;9.20;7.37;;;;;;;23.73;61.77;97682.34;5029067;28;20237;-26
2023/09/09 06:27:00;;;;;;;8.87;7.07;;;;;;;23.72;62.01;97681.50;5033163;28;20288;-26
2023/09/09 06:29:28;;;;;;;10.43;7.00;;;;;;;23.72;62.03;97683.19;5025435;28;20805;-26
2023/09/09 06:31:55;;;;;;;10.03;7.40;;;;;;;23.68;62.24;97682.22;5034288;28;20216;-26
2023/09/09 06:34:22;;;;;;;8.40;7.47;;;;;;;23.72;61.79;97685.75;5034292;28;20201;-26
2023/09/09 06:36:48;;;;;;;8.30;7.47;;;;;;;23.71;62.23;97690.00;5032985;28;20285;-26
2023/09/09 06:39:15;;;;;;;7.23;6.50;;;;;;;23.71;62.20;97690.00;5033854;28;20213;-26
2023/09/09 06:41:41;;;;;;;9.10;7.40;;;;;;;23.70;62.47;97685.72;5034418;28;20688;-26
2023/09/09 06:44:08;;;;;;;7.80;7.03;;;;;;;23.71;62.44;97699.44;5034684;28;20205;-26
2023/09/09 06:46:35;;;;;;;15.07;7.93;;;;;;;23.68;62.42;97694.22;5029201;28;20288;-26
2023/09/09 06:49:01;;;;;;;10.43;7.73;;;;;;;23.70;63.05;97695.97;5034271;28;20308;-26
2023/09/09 06:51:28;;;;;;;8.07;7.27;;;;;;;23.70;63.09;97700.22;5033881;28;20289;-26
2023/09/09 06:53:55;;;;;;;16.03;7.83;;;;;;;23.70;63.02;97690.84;5024215;28;20606;-26
2023/09/09 06:56:21;;;;;;;8.00;7.30;;;;;;;23.71;63.46;97689.16;5034635;28;20581;-26
2023/09/09 06:58:48;;;;;;;10.03;7.13;;;;;;;23.04;63.35;97578.94;5034385;28;20600;-26
2023/09/09 07:01:15;;;;;;;11.37;7.50;;;;;;;23.72;63.69;97696.91;5027059;28;20210;-26
2023/09/09 07:03:41;;;;;;;8.90;6.60;;;;;;;23.64;63.74;97685.56;5034081;28;20322;-26
2023/09/09 07:06:08;;;;;;;7.90;6.80;;;;;;;23.72;64.02;97690.88;5034656;28;20198;-26
2023/09/09 07:08:39;;;;;;;7.87;7.00;;;;;;;23.74;64.01;97704.63;5033645;28;20272;-26
2023/09/09 07:11:06;;;;;;;8.23;7.07;;;;;;;23.74;63.86;97700.34;5032452;28;20197;-26
2023/09/09 07:13:32;;;;;;;10.50;6.93;;;;;;;23.75;63.83;97698.66;5032844;28;20197;-26
2023/09/09 07:15:59;;;;;;;9.07;6.40;;;;;;;23.75;64.11;97698.66;5034091;28;20289;-26
2023/09/09 07:18:25;;;;;;;8.70;6.70;;;;;;;23.74;64.35;97700.34;5030611;28;20228;-26
2023/09/09 07:20:52;;;;;;;7.60;6.67;;;;;;;23.76;64.20;97706.38;5034285;28;20197;-26
2023/09/09 07:23:19;;;;;;;7.30;6.60;;;;;;;23.77;64.06;97707.25;5029762;28;20201;-26
2023/09/09 07:25:48;;;;;;;9.83;7.17;;;;;;;23.76;64.18;97708.94;5031722;28;20202;-26
2023/09/09 07:28:15;;;;;;;7.70;6.03;;;;;;;23.77;64.35;97702.13;5032064;28;20225;-26
2023/09/09 07:30:41;;;;;;;10.13;6.80;;;;;;;23.78;64.57;97703.84;5033633;28;20206;-26
2023/09/09 07:33:08;;;;;;;7.43;5.87;;;;;;;23.78;64.49;97703.84;5031800;28;20288;-26
2023/09/09 07:35:38;;;;;;;6.67;5.87;;;;;;;23.78;64.42;97706.41;5033724;28;20653;-26
2023/09/09 07:38:06;;;;;;;9.10;6.53;;;;;;;23.79;64.65;97700.44;5032762;28;20232;-26
2023/09/09 07:40:32;;;;;;;7.30;6.60;;;;;;;23.79;64.58;97710.72;5032361;28;20252;-26
2023/09/09 07:42:59;;;;;;;6.60;5.90;;;;;;;23.78;64.93;97704.72;5033153;28;20200;-26
2023/09/09 07:45:27;;;;;;;8.17;6.53;;;;;;;23.80;64.54;97708.19;5015977;28;20197;-26
2023/09/09 07:47:53;;;;;;;6.53;5.90;;;;;;;23.79;64.68;97711.59;5025759;28;20197;-26
2023/09/09 07:50:20;;;;;;;7.27;6.40;;;;;;;23.79;64.72;97706.47;5027977;28;20596;-26
2023/09/09 07:52:47;;;;;;;7.77;6.23;;;;;;;23.80;64.99;97715.03;5032339;28;20210;-26
2023/09/09 07:55:13;;;;;;;7.70;5.93;;;;;;;23.81;64.86;97701.34;5033556;28;20198;-26
2023/09/09 07:57:40;;;;;;;10.47;6.40;;;;;;;23.80;65.04;97713.31;5031116;28;20236;-26
2023/09/09 08:00:07;;;;;;;13.20;6.77;;;;;;;23.81;65.34;97709.94;5031749;28;20214;-26
2023/09/09 08:02:35;;;;;;;8.73;5.90;;;;;;;23.82;65.14;97715.91;5032938;28;20209;-26
2023/09/09 08:05:03;;;;;;;16.00;6.00;;;;;;;23.83;65.14;97709.97;5032599;28;20240;-26
2023/09/09 08:07:29;;;;;;;12.83;6.30;;;;;;;23.83;65.14;97713.38;5023773;28;20284;-26
2023/09/09 08:09:56;;;;;;;11.73;5.83;;;;;;;23.84;65.48;97706.56;5032019;28;20222;-26
2023/09/09 08:12:22;;;;;;;16.93;6.63;;;;;;;23.85;65.52;97713.41;5032524;28;20201;-26
2023/09/09 08:15:08;;;;;;;16.27;6.53;;;;;;;23.82;65.59;97705.66;5029984;28;20281;-26
2023/09/09 08:17:34;;;;;;;15.57;6.90;;;;;;;23.85;65.96;97714.31;5014789;28;20240;-26
2023/09/09 08:20:06;;;;;;;13.77;6.43;;;;;;;23.85;65.76;97716.00;5032698;28;20213;-26
2023/09/09 08:22:34;;;;;;;12.17;7.17;;;;;;;23.84;65.72;97720.28;5030282;28;20248;-26
2023/09/09 08:25:00;;;;;;;17.93;6.40;;;;;;;23.84;65.81;97720.28;5032876;28;20591;-26
2023/09/09 08:27:27;;;;;;;15.13;5.83;;;;;;;23.85;65.59;97724.56;5032922;28;20259;-26
2023/09/09 08:29:55;;;;;;;10.37;6.23;;;;;;;23.86;65.84;97722.88;5028456;28;20313;-26
2023/09/09 08:32:22;;;;;;;14.30;5.93;;;;;;;23.86;65.97;97725.44;5021967;28;20202;-26
2023/09/09 08:34:52;;;;;;;12.10;5.70;;;;;;;23.86;65.78;97723.72;5025757;28;20197;-27
2023/09/09 08:37:18;;;;;;;11.57;6.00;;;;;;;23.87;65.98;97724.59;5032562;28;20202;-26
2023/09/09 08:39:45;;;;;;;15.33;6.30;;;;;;;23.86;65.84;97728.84;5030788;28;20228;-26
2023/09/09 08:42:35;;;;;;;11.00;5.97;;;;;;;23.87;65.85;97728.06;5032355;28;20202;-26
2023/09/09 08:45:09;;;;;;;8.10;5.60;;;;;;;23.87;65.72;97730.63;5028022;28;20189;-26
2023/09/09 08:47:36;;;;;;;15.77;6.07;;;;;;;23.86;65.81;97723.72;5031897;28;20202;-26
2023/09/09 08:50:03;;;;;;;10.27;5.70;;;;;;;23.89;65.97;97725.50;5032065;28;20310;-26
2023/09/09 08:52:30;;;;;;;11.73;5.70;;;;;;;23.89;66.11;97722.94;5027838;28;20284;-26
2023/09/09 08:54:57;;;;;;;13.87;5.67;;;;;;;23.77;65.79;97697.84;5032300;28;20252;-26
2023/09/09 08:57:25;;;;;;;9.93;6.40;;;;;;;23.89;66.04;97716.09;5014773;28;20293;-26
2023/09/09 08:59:52;;;;;;;16.30;6.07;;;;;;;23.92;67.11;97713.59;5031914;28;20224;-26
2023/09/09 09:02:18;;;;;;;18.60;6.30;;;;;;;23.94;66.53;97709.38;4997566;28;20214;-26
2023/09/09 09:04:46;;;;;;;17.40;5.83;;;;;;;23.93;66.38;97720.50;5031980;28;20209;-26
2023/09/09 09:07:12;;;;;;;15.97;6.13;;;;;;;23.99;66.16;97719.78;4996050;28;20205;-26
2023/09/09 09:09:39;;;;;;;14.67;6.07;;;;;;;23.97;65.92;97713.72;5031073;28;20221;-26
2023/09/09 09:12:06;;;;;;;14.93;5.80;;;;;;;24.02;66.00;97722.41;5013980;28;20202;-26
2023/09/09 09:14:33;;;;;;;19.87;6.17;;;;;;;24.02;65.71;97714.72;5029201;28;20226;-26
2023/09/09 09:16:59;;;;;;;17.67;6.43;;;;;;;24.03;65.70;97712.19;5023945;28;20206;-26
2023/09/09 09:19:27;;;;;;;12.77;6.03;;;;;;;24.03;65.52;97724.13;4994908;28;20271;-26
2023/09/09 09:21:54;;;;;;;16.33;6.13;;;;;;;24.04;65.77;97713.06;5027721;28;20826;-26
2023/09/09 09:24:22;;;;;;;8.77;5.97;;;;;;;24.05;65.85;97725.06;5024259;28;20201;-26
2023/09/09 09:26:49;;;;;;;15.70;5.67;;;;;;;24.05;65.66;97725.06;5030161;28;20233;-26
2023/09/09 09:29:15;;;;;;;11.40;5.53;;;;;;;24.03;65.54;97712.19;5026135;28;20315;-26
2023/09/09 09:31:42;;;;;;;14.63;6.07;;;;;;;24.04;65.45;97713.91;5025872;28;20206;-26
2023/09/09 09:34:08;;;;;;;11.67;5.47;;;;;;;24.03;65.50;97708.75;4994289;28;20205;-26
2023/09/09 09:36:35;;;;;;;9.20;5.43;;;;;;;24.04;65.97;97707.94;5023001;28;20263;-26
2023/09/09 09:39:10;;;;;;;9.03;5.00;;;;;;;24.04;65.85;97705.34;5022669;28;20222;-26
2023/09/09 09:41:40;;;;;;;7.67;5.27;;;;;;;24.03;65.52;97704.47;5003122;28;20201;-26
2023/09/09 09:44:19;;;;;;;10.53;5.87;;;;;;;24.03;65.85;97704.47;5028912;28;20289;-26
2023/09/09 09:47:05;;;;;;;10.37;5.30;;;;;;;24.03;65.78;97703.59;5022200;28;20209;-26
2023/09/09 09:49:35;;;;;;;10.60;5.73;;;;;;;24.02;65.94;97699.31;5023481;28;20225;-26
2023/09/09 09:52:02;;;;;;;12.60;5.10;;;;;;;24.02;65.63;97699.31;5024797;28;20197;-26
2023/09/09 09:54:32;;;;;;;8.87;5.30;;;;;;;24.01;66.02;97701.00;5029130;28;20728;-26
2023/09/09 09:57:01;;;;;;;6.93;5.10;;;;;;;24.01;65.66;97701.00;5028125;28;20202;-26
2023/09/09 09:59:29;;;;;;;6.20;5.40;;;;;;;24.01;65.78;97695.03;5020044;28;20241;-26
2023/09/09 10:01:56;;;;;;;7.57;4.87;;;;;;;23.96;65.94;97684.66;5028363;28;20344;-26
2023/09/09 10:04:22;;;;;;;8.37;5.17;;;;;;;24.00;66.16;97701.84;5031359;28;20580;-26
2023/09/09 10:06:49;;;;;;;8.50;4.87;;;;;;;24.01;66.11;97695.88;5012883;28;20205;-26
2023/09/09 10:09:27;;;;;;;8.33;5.03;;;;;;;23.92;66.07;97690.50;5011786;28;20233;-26
2023/09/09 10:11:56;;;;;;;10.30;4.97;;;;;;;23.97;65.81;97688.94;5014624;28;20240;-26
2023/09/09 10:14:24;;;;;;;9.63;5.33;;;;;;;24.01;65.82;97695.03;4989935;28;20244;-26
2023/09/09 10:16:52;;;;;;;10.77;5.30;;;;;;;24.01;65.87;97698.44;5026991;28;20256;-26
2023/09/09 10:19:18;;;;;;;14.93;5.07;;;;;;;23.99;65.77;97686.41;5030289;28;20222;-26
2023/09/09 10:21:49;;;;;;;7.30;5.00;;;;;;;24.02;65.85;97697.63;5013034;28;20605;-26
2023/09/09 10:24:16;;;;;;;9.90;5.87;;;;;;;24.03;65.85;97696.78;5012766;28;20205;-26
2023/09/09 10:26:43;;;;;;;6.83;5.10;;;;;;;24.03;65.72;97690.75;4996199;28;20260;-26
2023/09/09 10:29:10;;;;;;;5.80;5.17;;;;;;;24.03;65.67;97686.50;5012952;28;20687;-26
2023/09/09 10:31:36;;;;;;;8.03;4.57;;;;;;;24.04;66.05;97685.66;5028698;28;20198;-26
2023/09/09 10:34:03;;;;;;;8.63;4.87;;;;;;;24.04;66.14;97677.97;5010288;28;20197;-26
2023/09/09 10:36:32;;;;;;;6.10;4.90;;;;;;;24.04;65.75;97674.53;5031281;28;20202;-26
2023/09/09 10:39:13;;;;;;;9.67;5.20;;;;;;;24.04;65.85;97677.13;5025221;28;20230;-26
2023/09/09 10:41:40;;;;;;;6.47;4.43;;;;;;;24.02;65.64;97676.19;5013001;28;20198;-26
2023/09/09 10:44:06;;;;;;;6.03;4.73;;;;;;;24.01;66.31;97666.78;4996892;28;20221;-26
2023/09/09 10:46:33;;;;;;;7.23;4.17;;;;;;;24.05;66.04;97673.69;5016097;28;20225;-26
2023/09/09 10:49:02;;;;;;;7.33;4.97;;;;;;;24.04;65.84;97674.53;5034214;28;20279;-26
2023/09/09 10:51:29;;;;;;;7.97;4.77;;;;;;;24.04;66.01;97674.53;5034370;28;20727;-26
2023/09/09 10:54:06;;;;;;;5.30;4.77;;;;;;;24.04;66.14;97675.41;5033870;28;20212;-26
2023/09/09 10:56:33;;;;;;;11.03;5.17;;;;;;;24.02;66.42;97671.94;5029415;28;20620;-26
2023/09/09 10:59:13;;;;;;;8.33;5.10;;;;;;;24.01;66.53;97674.47;5033243;28;20224;-26
2023/09/09 11:01:40;;;;;;;7.37;5.13;;;;;;;23.98;66.66;97672.69;5001254;28;20217;-26
2023/09/09 11:04:21;;;;;;;5.73;4.97;;;;;;;23.95;66.79;97666.63;5034385;28;20846;-26
2023/09/09 11:07:06;;;;;;;7.73;5.37;;;;;;;23.93;66.66;97670.84;5017149;28;20679;-26
2023/09/09 11:09:33;;;;;;;8.43;4.97;;;;;;;23.92;66.80;97669.94;5034215;28;20232;-26
2023/09/09 11:11:59;;;;;;;8.07;4.83;;;;;;;23.90;66.91;97663.06;5033296;28;20256;-26
2023/09/09 11:14:29;;;;;;;6.93;4.80;;;;;;;23.88;66.83;97665.59;5015741;28;20198;-26
2023/09/09 11:16:55;;;;;;;8.70;4.90;;;;;;;23.87;67.10;97668.13;5032284;28;20228;-27
2023/09/09 11:19:23;;;;;;;5.40;4.90;;;;;;;23.86;66.80;97661.28;5033067;28;20283;-26
2023/09/09 11:21:51;;;;;;;6.90;4.73;;;;;;;23.85;67.21;97656.94;5032984;28;20229;-26
2023/09/09 11:24:18;;;;;;;9.43;4.50;;;;;;;23.85;67.05;97659.50;5031350;28;20202;-26
2023/09/09 11:26:48;;;;;;;5.97;4.47;;;;;;;23.84;67.36;97661.25;5033477;28;20678;-26
2023/09/09 11:29:15;;;;;;;6.53;5.03;;;;;;;23.85;67.15;97651.81;5029105;28;20316;-26
2023/09/09 11:32:02;;;;;;;5.40;4.77;;;;;;;23.85;67.11;97664.66;5030898;28;20202;-26